sensor_id;sensor_type;location;lat;lon;timestamp;pressure;altitude;pressure_sealevel;temperature;humidity
46087;BME280;31824;49.648;8.640;2023-04-21T00:00:04;100019.72;;;6.73;100.00
46087;BME280;31824;49.648;8.640;2023-04-21T00:03:09;100017.03;;;6.65;100.00
46087;BME280;31824;49.648;8.640;2023-04-21T00:06:11;100021.47;;;6.57;100.00
46087;BME280;31824;49.648;8.640;2023-04-21T00:09:14;100018.00;;;6.40;100.00
46087;BME280;31824;49.648;8.640;2023-04-21T00:12:16;100013.59;;;6.48;100.00
46087;BME280;31824;49.648;8.640;2023-04-21T00:15:17;100014.59;;;6.33;100.00
46087;BME280;31824;49.648;8.640;2023-04-21T00:18:19;100007.91;;;6.19;100.00
46087;BME280;31824;49.648;8.640;2023-04-21T00:21:21;100007.38;;;6.05;100.00
46087;BME280;31824;49.648;8.640;2023-04-21T00:24:24;100008.19;;;5.97;100.00
46087;BME280;31824;49.648;8.640;2023-04-21T00:27:26;100009.81;;;5.88;100.00
46087;BME280;31824;49.648;8.640;2023-04-21T00:30:28;100008.66;;;5.77;100.00
46087;BME280;31824;49.648;8.640;2023-04-21T00:33:31;100003.16;;;5.83;100.00
46087;BME280;31824;49.648;8.640;2023-04-21T00:36:33;100010.44;;;5.94;100.00
46087;BME280;31824;49.648;8.640;2023-04-21T00:39:36;100005.19;;;5.85;100.00
46087;BME280;31824;49.648;8.640;2023-04-21T00:42:37;100024.41;;;5.70;100.00
46087;BME280;31824;49.648;8.640;2023-04-21T00:45:39;100013.03;;;5.53;100.00
46087;BME280;31824;49.648;8.640;2023-04-21T00:48:41;100009.88;;;5.40;100.00
46087;BME280;31824;49.648;8.640;2023-04-21T00:51:43;100004.22;;;5.28;100.00
46087;BME280;31824;49.648;8.640;2023-04-21T00:54:46;100005.72;;;5.26;100.00
46087;BME280;31824;49.648;8.640;2023-04-21T00:57:50;100010.28;;;5.20;100.00
46087;BME280;31824;49.648;8.640;2023-04-21T01:00:52;100010.72;;;5.32;100.00
46087;BME280;31824;49.648;8.640;2023-04-21T01:03:56;100004.31;;;5.21;100.00
46087;BME280;31824;49.648;8.640;2023-04-21T01:06:58;99994.56;;;5.27;100.00
46087;BME280;31824;49.648;8.640;2023-04-21T01:10:01;99999.94;;;5.45;100.00
46087;BME280;31824;49.648;8.640;2023-04-21T01:13:04;100000.09;;;5.62;100.00
46087;BME280;31824;49.648;8.640;2023-04-21T01:16:06;99995.75;;;5.54;100.00
46087;BME280;31824;49.648;8.640;2023-04-21T01:19:11;99995.72;;;5.70;100.00
46087;BME280;31824;49.648;8.640;2023-04-21T01:22:16;100001.41;;;5.74;100.00
46087;BME280;31824;49.648;8.640;2023-04-21T01:25:18;99993.59;;;5.74;100.00
46087;BME280;31824;49.648;8.640;2023-04-21T01:28:24;99991.16;;;5.76;100.00
46087;BME280;31824;49.648;8.640;2023-04-21T01:31:26;99995.22;;;5.65;100.00
46087;BME280;31824;49.648;8.640;2023-04-21T01:34:28;99997.38;;;5.69;100.00
46087;BME280;31824;49.648;8.640;2023-04-21T01:37:31;99991.97;;;5.59;100.00
46087;BME280;31824;49.648;8.640;2023-04-21T01:40:33;100000.78;;;5.52;100.00
46087;BME280;31824;49.648;8.640;2023-04-21T01:43:36;100002.28;;;5.34;100.00
46087;BME280;31824;49.648;8.640;2023-04-21T01:46:37;100000.69;;;5.44;100.00
46087;BME280;31824;49.648;8.640;2023-04-21T01:49:39;99996.06;;;5.41;100.00
46087;BME280;31824;49.648;8.640;2023-04-21T01:52:43;99997.50;;;5.46;100.00
46087;BME280;31824;49.648;8.640;2023-04-21T01:55:44;99999.41;;;5.56;100.00
46087;BME280;31824;49.648;8.640;2023-04-21T01:58:46;99994.03;;;5.38;100.00
46087;BME280;31824;49.648;8.640;2023-04-21T02:01:48;100000.88;;;5.29;100.00
46087;BME280;31824;49.648;8.640;2023-04-21T02:04:50;99990.31;;;5.28;100.00
46087;BME280;31824;49.648;8.640;2023-04-21T02:07:54;99995.84;;;5.31;100.00
46087;BME280;31824;49.648;8.640;2023-04-21T02:10:56;100001.47;;;5.27;100.00
46087;BME280;31824;49.648;8.640;2023-04-21T02:13:58;99999.69;;;5.34;100.00
46087;BME280;31824;49.648;8.640;2023-04-21T02:17:00;99997.59;;;5.23;100.00
46087;BME280;31824;49.648;8.640;2023-04-21T02:20:05;99994.06;;;5.22;100.00
46087;BME280;31824;49.648;8.640;2023-04-21T02:23:09;99997.50;;;5.30;100.00
46087;BME280;31824;49.648;8.640;2023-04-21T02:26:10;100003.53;;;5.22;100.00
46087;BME280;31824;49.648;8.640;2023-04-21T02:29:12;100006.75;;;5.03;100.00
46087;BME280;31824;49.648;8.640;2023-04-21T02:32:14;100008.22;;;5.01;100.00
46087;BME280;31824;49.648;8.640;2023-04-21T02:35:26;100010.50;;;4.98;100.00
46087;BME280;31824;49.648;8.640;2023-04-21T02:38:29;100013.84;;;4.97;100.00
46087;BME280;31824;49.648;8.640;2023-04-21T02:41:31;100007.16;;;4.99;100.00
46087;BME280;31824;49.648;8.640;2023-04-21T02:44:36;100006.28;;;4.92;100.00
46087;BME280;31824;49.648;8.640;2023-04-21T02:47:37;100006.03;;;4.97;100.00
46087;BME280;31824;49.648;8.640;2023-04-21T02:50:41;100012.38;;;4.99;100.00
46087;BME280;31824;49.648;8.640;2023-04-21T02:53:46;100005.88;;;4.96;100.00
46087;BME280;31824;49.648;8.640;2023-04-21T02:56:48;100003.03;;;5.01;100.00
46087;BME280;31824;49.648;8.640;2023-04-21T02:59:50;100011.88;;;5.27;100.00
46087;BME280;31824;49.648;8.640;2023-04-21T03:02:52;100013.06;;;5.21;100.00
46087;BME280;31824;49.648;8.640;2023-04-21T03:05:57;100013.28;;;5.00;100.00
46087;BME280;31824;49.648;8.640;2023-04-21T03:09:00;100013.53;;;4.94;100.00
46087;BME280;31824;49.648;8.640;2023-04-21T03:12:03;100012.66;;;4.86;100.00
46087;BME280;31824;49.648;8.640;2023-04-21T03:15:05;100015.09;;;4.85;100.00
46087;BME280;31824;49.648;8.640;2023-04-21T03:18:08;100009.88;;;4.85;100.00
46087;BME280;31824;49.648;8.640;2023-04-21T03:21:10;100003.41;;;4.65;100.00
46087;BME280;31824;49.648;8.640;2023-04-21T03:24:14;99997.91;;;4.55;100.00
46087;BME280;31824;49.648;8.640;2023-04-21T03:27:16;99999.19;;;4.59;100.00
46087;BME280;31824;49.648;8.640;2023-04-21T03:30:18;99995.00;;;4.45;100.00
46087;BME280;31824;49.648;8.640;2023-04-21T03:33:19;99996.22;;;4.32;100.00
46087;BME280;31824;49.648;8.640;2023-04-21T03:36:21;99987.03;;;4.43;100.00
46087;BME280;31824;49.648;8.640;2023-04-21T03:39:24;99992.47;;;4.37;100.00
46087;BME280;31824;49.648;8.640;2023-04-21T03:42:27;99995.63;;;4.12;100.00
46087;BME280;31824;49.648;8.640;2023-04-21T03:45:31;99996.97;;;4.08;100.00
46087;BME280;31824;49.648;8.640;2023-04-21T03:48:33;99989.00;;;4.30;100.00
46087;BME280;31824;49.648;8.640;2023-04-21T03:51:35;100001.19;;;4.15;100.00
46087;BME280;31824;49.648;8.640;2023-04-21T03:54:38;99995.16;;;4.00;100.00
46087;BME280;31824;49.648;8.640;2023-04-21T03:57:40;100000.88;;;4.04;100.00
46087;BME280;31824;49.648;8.640;2023-04-21T04:00:43;99996.09;;;4.00;100.00
46087;BME280;31824;49.648;8.640;2023-04-21T04:03:44;99995.19;;;3.93;100.00
46087;BME280;31824;49.648;8.640;2023-04-21T04:06:46;99998.16;;;3.96;100.00
46087;BME280;31824;49.648;8.640;2023-04-21T04:09:50;99998.59;;;3.84;100.00
46087;BME280;31824;49.648;8.640;2023-04-21T04:12:51;99994.22;;;3.99;100.00
46087;BME280;31824;49.648;8.640;2023-04-21T04:15:53;99990.53;;;3.97;100.00
46087;BME280;31824;49.648;8.640;2023-04-21T04:18:55;99987.66;;;3.80;100.00
46087;BME280;31824;49.648;8.640;2023-04-21T04:21:58;99996.44;;;3.73;100.00
46087;BME280;31824;49.648;8.640;2023-04-21T04:25:01;99996.72;;;3.83;100.00
46087;BME280;31824;49.648;8.640;2023-04-21T04:28:03;99999.25;;;3.98;100.00
46087;BME280;31824;49.648;8.640;2023-04-21T04:31:06;99998.09;;;4.03;100.00
46087;BME280;31824;49.648;8.640;2023-04-21T04:34:08;99997.22;;;3.95;100.00
46087;BME280;31824;49.648;8.640;2023-04-21T04:37:10;100000.28;;;3.84;100.00
46087;BME280;31824;49.648;8.640;2023-04-21T04:40:14;100000.38;;;3.93;100.00
46087;BME280;31824;49.648;8.640;2023-04-21T04:43:16;99992.88;;;3.80;100.00
46087;BME280;31824;49.648;8.640;2023-04-21T04:46:18;99996.13;;;3.93;100.00
46087;BME280;31824;49.648;8.640;2023-04-21T04:49:21;99997.28;;;3.88;100.00
46087;BME280;31824;49.648;8.640;2023-04-21T04:52:24;99997.66;;;3.84;100.00
46087;BME280;31824;49.648;8.640;2023-04-21T04:55:28;99999.03;;;4.03;100.00
46087;BME280;31824;49.648;8.640;2023-04-21T04:58:30;99991.06;;;4.02;100.00
46087;BME280;31824;49.648;8.640;2023-04-21T05:01:51;99990.03;;;4.16;100.00
46087;BME280;31824;49.648;8.640;2023-04-21T05:04:53;99983.44;;;4.03;100.00
46087;BME280;31824;49.648;8.640;2023-04-21T05:07:55;99983.97;;;4.08;100.00
46087;BME280;31824;49.648;8.640;2023-04-21T05:10:59;99989.19;;;4.31;100.00
46087;BME280;31824;49.648;8.640;2023-04-21T05:14:04;99990.91;;;4.23;100.00
46087;BME280;31824;49.648;8.640;2023-04-21T05:17:05;100005.53;;;4.30;100.00
46087;BME280;31824;49.648;8.640;2023-04-21T05:20:08;100012.94;;;4.34;100.00
46087;BME280;31824;49.648;8.640;2023-04-21T05:23:10;100015.69;;;4.36;100.00
46087;BME280;31824;49.648;8.640;2023-04-21T05:26:13;100005.47;;;4.61;100.00
46087;BME280;31824;49.648;8.640;2023-04-21T05:29:14;100005.50;;;4.77;100.00
46087;BME280;31824;49.648;8.640;2023-04-21T05:32:16;100011.16;;;4.88;100.00
46087;BME280;31824;49.648;8.640;2023-04-21T05:35:18;100002.19;;;5.10;100.00
46087;BME280;31824;49.648;8.640;2023-04-21T05:38:20;100005.81;;;5.19;100.00
46087;BME280;31824;49.648;8.640;2023-04-21T05:41:23;100000.69;;;5.12;100.00
46087;BME280;31824;49.648;8.640;2023-04-21T05:44:25;100003.81;;;5.32;100.00
46087;BME280;31824;49.648;8.640;2023-04-21T05:47:26;100010.53;;;5.30;100.00
46087;BME280;31824;49.648;8.640;2023-04-21T05:50:29;100003.38;;;5.52;100.00
46087;BME280;31824;49.648;8.640;2023-04-21T05:53:34;99995.38;;;5.67;100.00
46087;BME280;31824;49.648;8.640;2023-04-21T05:56:37;99991.16;;;5.76;100.00
46087;BME280;31824;49.648;8.640;2023-04-21T05:59:39;99990.25;;;5.75;100.00
46087;BME280;31824;49.648;8.640;2023-04-21T06:02:41;100003.72;;;5.71;100.00
46087;BME280;31824;49.648;8.640;2023-04-21T06:05:43;100009.63;;;6.02;100.00
46087;BME280;31824;49.648;8.640;2023-04-21T06:08:45;100012.47;;;6.13;100.00
46087;BME280;31824;49.648;8.640;2023-04-21T06:11:48;100011.13;;;6.16;100.00
46087;BME280;31824;49.648;8.640;2023-04-21T06:14:51;100014.69;;;6.25;100.00
46087;BME280;31824;49.648;8.640;2023-04-21T06:17:53;100019.75;;;6.24;100.00
46087;BME280;31824;49.648;8.640;2023-04-21T06:20:58;100019.53;;;6.14;100.00
46087;BME280;31824;49.648;8.640;2023-04-21T06:23:59;100025.56;;;6.21;100.00
46087;BME280;31824;49.648;8.640;2023-04-21T06:27:03;100020.09;;;6.27;100.00
46087;BME280;31824;49.648;8.640;2023-04-21T06:30:29;100030.28;;;6.17;100.00
46087;BME280;31824;49.648;8.640;2023-04-21T06:33:40;100030.41;;;6.34;100.00
46087;BME280;31824;49.648;8.640;2023-04-21T06:36:50;55916.78;;;-146.75;100.00
46087;BME280;31824;49.648;8.640;2023-04-21T06:39:51;55916.78;;;-146.75;100.00
46087;BME280;31824;49.648;8.640;2023-04-21T06:42:54;55916.78;;;-146.75;100.00
46087;BME280;31824;49.648;8.640;2023-04-21T06:45:56;55916.78;;;-146.75;100.00
46087;BME280;31824;49.648;8.640;2023-04-21T06:51:09;100042.44;;;5.84;100.00
46087;BME280;31824;49.648;8.640;2023-04-21T06:54:11;100026.09;;;6.10;100.00
46087;BME280;31824;49.648;8.640;2023-04-21T06:57:12;100027.56;;;6.24;100.00
46087;BME280;31824;49.648;8.640;2023-04-21T07:00:16;100028.53;;;6.33;100.00
46087;BME280;31824;49.648;8.640;2023-04-21T07:03:18;100028.22;;;6.30;100.00
46087;BME280;31824;49.648;8.640;2023-04-21T07:06:21;100033.03;;;6.43;100.00
46087;BME280;31824;49.648;8.640;2023-04-21T07:09:23;100035.97;;;6.21;100.00
46087;BME280;31824;49.648;8.640;2023-04-21T07:12:25;100038.28;;;6.43;100.00
46087;BME280;31824;49.648;8.640;2023-04-21T07:15:27;100044.75;;;6.47;100.00
46087;BME280;31824;49.648;8.640;2023-04-21T07:18:29;100029.69;;;6.44;100.00
46087;BME280;31824;49.648;8.640;2023-04-21T07:21:32;100034.72;;;6.67;100.00
46087;BME280;31824;49.648;8.640;2023-04-21T07:24:36;100028.00;;;6.69;100.00
46087;BME280;31824;49.648;8.640;2023-04-21T07:27:38;100027.19;;;7.04;100.00
46087;BME280;31824;49.648;8.640;2023-04-21T07:30:40;100027.13;;;6.86;100.00
46087;BME280;31824;49.648;8.640;2023-04-21T07:33:42;100022.91;;;6.71;100.00
46087;BME280;31824;49.648;8.640;2023-04-21T07:36:45;100024.78;;;6.72;100.00
46087;BME280;31824;49.648;8.640;2023-04-21T07:39:47;100022.66;;;7.36;100.00
46087;BME280;31824;49.648;8.640;2023-04-21T07:42:52;100015.47;;;7.86;100.00
46087;BME280;31824;49.648;8.640;2023-04-21T07:45:54;100022.38;;;7.59;100.00
46087;BME280;31824;49.648;8.640;2023-04-21T07:48:56;100030.66;;;7.64;100.00
46087;BME280;31824;49.648;8.640;2023-04-21T07:51:59;100030.09;;;7.75;100.00
46087;BME280;31824;49.648;8.640;2023-04-21T07:55:22;100024.38;;;7.71;100.00
46087;BME280;31824;49.648;8.640;2023-04-21T07:58:24;100023.91;;;7.57;100.00
46087;BME280;31824;49.648;8.640;2023-04-21T08:01:26;100033.47;;;7.92;100.00
46087;BME280;31824;49.648;8.640;2023-04-21T08:04:28;100029.63;;;7.97;100.00
46087;BME280;31824;49.648;8.640;2023-04-21T08:07:31;100039.44;;;7.73;100.00
46087;BME280;31824;49.648;8.640;2023-04-21T08:10:33;100035.00;;;7.64;100.00
46087;BME280;31824;49.648;8.640;2023-04-21T08:13:35;100032.53;;;7.83;100.00
46087;BME280;31824;49.648;8.640;2023-04-21T08:16:38;100022.38;;;7.86;100.00
46087;BME280;31824;49.648;8.640;2023-04-21T08:19:41;100021.16;;;8.00;100.00
46087;BME280;31824;49.648;8.640;2023-04-21T08:22:44;100007.00;;;7.80;100.00
46087;BME280;31824;49.648;8.640;2023-04-21T08:25:48;100006.06;;;8.15;100.00
46087;BME280;31824;49.648;8.640;2023-04-21T08:28:50;100005.94;;;7.96;100.00
46087;BME280;31824;49.648;8.640;2023-04-21T08:31:53;100006.81;;;8.14;100.00
46087;BME280;31824;49.648;8.640;2023-04-21T08:34:55;100009.00;;;8.00;100.00
46087;BME280;31824;49.648;8.640;2023-04-21T08:37:58;100001.66;;;8.41;100.00
46087;BME280;31824;49.648;8.640;2023-04-21T08:41:01;100000.41;;;8.55;100.00
46087;BME280;31824;49.648;8.640;2023-04-21T08:44:04;99999.94;;;8.68;100.00
46087;BME280;31824;49.648;8.640;2023-04-21T08:47:09;99993.38;;;8.91;100.00
46087;BME280;31824;49.648;8.640;2023-04-21T08:50:12;99986.94;;;9.06;100.00
46087;BME280;31824;49.648;8.640;2023-04-21T08:53:16;99988.78;;;8.79;100.00
46087;BME280;31824;49.648;8.640;2023-04-21T08:56:18;99984.53;;;8.99;100.00
46087;BME280;31824;49.648;8.640;2023-04-21T08:59:20;99990.25;;;9.23;100.00
46087;BME280;31824;49.648;8.640;2023-04-21T09:02:22;99993.44;;;9.29;100.00
46087;BME280;31824;49.648;8.640;2023-04-21T09:05:25;99977.72;;;9.29;100.00
46087;BME280;31824;49.648;8.640;2023-04-21T09:08:30;99983.34;;;9.80;100.00
46087;BME280;31824;49.648;8.640;2023-04-21T09:11:33;99981.41;;;9.88;100.00
46087;BME280;31824;49.648;8.640;2023-04-21T09:14:35;99977.84;;;10.07;100.00
46087;BME280;31824;49.648;8.640;2023-04-21T09:17:37;99969.75;;;9.95;100.00
46087;BME280;31824;49.648;8.640;2023-04-21T09:20:39;99980.59;;;10.08;100.00
46087;BME280;31824;49.648;8.640;2023-04-21T09:23:44;99978.69;;;10.45;100.00
46087;BME280;31824;49.648;8.640;2023-04-21T09:26:48;99978.53;;;10.73;100.00
46087;BME280;31824;49.648;8.640;2023-04-21T09:29:51;99962.88;;;10.85;100.00
46087;BME280;31824;49.648;8.640;2023-04-21T09:32:55;99963.31;;;11.00;100.00
46087;BME280;31824;49.648;8.640;2023-04-21T09:36:01;99956.59;;;11.45;100.00
46087;BME280;31824;49.648;8.640;2023-04-21T09:39:05;99957.81;;;11.07;100.00
46087;BME280;31824;49.648;8.640;2023-04-21T09:42:11;99951.50;;;11.46;100.00
46087;BME280;31824;49.648;8.640;2023-04-21T09:45:16;99946.97;;;11.66;100.00
46087;BME280;31824;49.648;8.640;2023-04-21T09:48:42;99943.25;;;11.95;100.00
46087;BME280;31824;49.648;8.640;2023-04-21T09:51:44;99935.88;;;12.01;100.00
46087;BME280;31824;49.648;8.640;2023-04-21T09:55:10;99935.25;;;12.26;100.00
46087;BME280;31824;49.648;8.640;2023-04-21T09:58:15;99929.75;;;12.45;100.00
46087;BME280;31824;49.648;8.640;2023-04-21T10:01:22;99923.84;;;12.37;100.00
46087;BME280;31824;49.648;8.640;2023-04-21T10:04:26;99917.88;;;12.50;100.00
46087;BME280;31824;49.648;8.640;2023-04-21T10:07:30;99920.16;;;13.02;100.00
46087;BME280;31824;49.648;8.640;2023-04-21T10:10:33;99920.56;;;13.18;100.00
46087;BME280;31824;49.648;8.640;2023-04-21T10:13:36;99911.56;;;13.50;100.00
46087;BME280;31824;49.648;8.640;2023-04-21T10:16:40;99904.94;;;13.91;100.00
46087;BME280;31824;49.648;8.640;2023-04-21T10:19:50;99895.84;;;13.99;100.00
46087;BME280;31824;49.648;8.640;2023-04-21T10:22:56;99901.97;;;13.74;100.00
46087;BME280;31824;49.648;8.640;2023-04-21T10:26:08;99908.59;;;13.69;100.00
46087;BME280;31824;49.648;8.640;2023-04-21T10:29:11;99908.84;;;13.84;100.00
46087;BME280;31824;49.648;8.640;2023-04-21T10:32:30;99902.03;;;14.11;100.00
46087;BME280;31824;49.648;8.640;2023-04-21T10:35:58;99903.88;;;14.24;100.00
46087;BME280;31824;49.648;8.640;2023-04-21T10:39:04;99905.13;;;14.29;100.00
46087;BME280;31824;49.648;8.640;2023-04-21T10:42:22;99901.34;;;14.75;100.00
46087;BME280;31824;49.648;8.640;2023-04-21T10:45:25;99894.81;;;14.95;100.00
46087;BME280;31824;49.648;8.640;2023-04-21T10:48:27;99891.81;;;15.15;100.00
46087;BME280;31824;49.648;8.640;2023-04-21T10:51:29;99882.38;;;15.19;100.00
46087;BME280;31824;49.648;8.640;2023-04-21T10:54:36;99881.03;;;15.26;100.00
46087;BME280;31824;49.648;8.640;2023-04-21T10:57:44;99880.78;;;15.75;100.00
46087;BME280;31824;49.648;8.640;2023-04-21T11:00:46;99879.41;;;15.93;100.00
46087;BME280;31824;49.648;8.640;2023-04-21T11:03:54;99877.31;;;15.49;100.00
46087;BME280;31824;49.648;8.640;2023-04-21T11:07:06;99879.09;;;15.75;100.00
46087;BME280;31824;49.648;8.640;2023-04-21T11:10:09;99874.00;;;16.47;100.00
46087;BME280;31824;49.648;8.640;2023-04-21T11:13:13;99879.97;;;16.99;100.00
46087;BME280;31824;49.648;8.640;2023-04-21T11:16:16;99863.06;;;16.56;100.00
46087;BME280;31824;49.648;8.640;2023-04-21T11:19:18;99856.63;;;16.94;100.00
46087;BME280;31824;49.648;8.640;2023-04-21T11:22:25;99866.00;;;17.17;100.00
46087;BME280;31824;49.648;8.640;2023-04-21T11:25:28;99856.38;;;17.04;100.00
46087;BME280;31824;49.648;8.640;2023-04-21T11:28:31;99854.34;;;16.43;100.00
46087;BME280;31824;49.648;8.640;2023-04-21T11:31:34;99840.28;;;16.87;100.00
46087;BME280;31824;49.648;8.640;2023-04-21T11:34:40;99834.84;;;17.14;100.00
46087;BME280;31824;49.648;8.640;2023-04-21T11:37:41;99840.22;;;16.58;100.00
46087;BME280;31824;49.648;8.640;2023-04-21T11:40:45;99829.06;;;16.92;100.00
46087;BME280;31824;49.648;8.640;2023-04-21T11:43:48;99827.44;;;16.94;100.00
46087;BME280;31824;49.648;8.640;2023-04-21T11:46:50;99829.41;;;16.83;100.00
46087;BME280;31824;49.648;8.640;2023-04-21T11:49:54;99803.56;;;17.24;100.00
46087;BME280;31824;49.648;8.640;2023-04-21T11:52:57;99818.91;;;17.59;100.00
46087;BME280;31824;49.648;8.640;2023-04-21T11:55:59;99834.38;;;17.66;100.00
46087;BME280;31824;49.648;8.640;2023-04-21T11:59:07;99841.41;;;17.96;100.00
46087;BME280;31824;49.648;8.640;2023-04-21T12:02:12;99834.53;;;17.99;100.00
46087;BME280;31824;49.648;8.640;2023-04-21T12:05:15;99823.59;;;17.33;100.00
46087;BME280;31824;49.648;8.640;2023-04-21T12:08:17;99817.13;;;18.21;100.00
46087;BME280;31824;49.648;8.640;2023-04-21T12:11:19;99825.28;;;17.78;100.00
46087;BME280;31824;49.648;8.640;2023-04-21T12:14:23;99822.97;;;17.84;100.00
46087;BME280;31824;49.648;8.640;2023-04-21T12:17:34;99816.97;;;17.71;100.00
46087;BME280;31824;49.648;8.640;2023-04-21T12:20:37;99816.09;;;18.02;100.00
46087;BME280;31824;49.648;8.640;2023-04-21T12:23:38;99815.38;;;17.90;100.00
46087;BME280;31824;49.648;8.640;2023-04-21T12:26:40;99807.66;;;17.33;100.00
46087;BME280;31824;49.648;8.640;2023-04-21T12:29:45;99800.31;;;17.91;100.00
46087;BME280;31824;49.648;8.640;2023-04-21T12:32:47;99805.25;;;18.31;100.00
46087;BME280;31824;49.648;8.640;2023-04-21T12:35:49;99812.81;;;18.72;100.00
46087;BME280;31824;49.648;8.640;2023-04-21T12:38:51;99820.63;;;19.37;100.00
46087;BME280;31824;49.648;8.640;2023-04-21T12:41:52;99817.75;;;18.48;100.00
46087;BME280;31824;49.648;8.640;2023-04-21T12:44:56;99817.66;;;18.47;100.00
46087;BME280;31824;49.648;8.640;2023-04-21T12:47:58;99808.50;;;18.25;100.00
46087;BME280;31824;49.648;8.640;2023-04-21T12:51:00;99803.44;;;17.52;100.00
46087;BME280;31824;49.648;8.640;2023-04-21T12:54:02;99815.00;;;18.47;100.00
46087;BME280;31824;49.648;8.640;2023-04-21T12:57:04;99807.81;;;18.79;100.00
46087;BME280;31824;49.648;8.640;2023-04-21T13:00:09;99807.53;;;18.89;100.00
46087;BME280;31824;49.648;8.640;2023-04-21T13:03:15;99799.19;;;18.33;100.00
46087;BME280;31824;49.648;8.640;2023-04-21T13:06:17;99791.78;;;18.77;100.00
46087;BME280;31824;49.648;8.640;2023-04-21T13:09:19;99799.88;;;19.13;100.00
46087;BME280;31824;49.648;8.640;2023-04-21T13:12:21;99801.22;;;19.05;100.00
46087;BME280;31824;49.648;8.640;2023-04-21T13:15:24;99782.78;;;19.08;100.00
46087;BME280;31824;49.648;8.640;2023-04-21T13:18:26;99781.50;;;19.18;100.00
46087;BME280;31824;49.648;8.640;2023-04-21T13:21:28;99786.00;;;19.55;100.00
46087;BME280;31824;49.648;8.640;2023-04-21T13:24:30;99781.91;;;19.44;100.00
46087;BME280;31824;49.648;8.640;2023-04-21T13:27:32;99781.28;;;18.97;100.00
46087;BME280;31824;49.648;8.640;2023-04-21T13:30:36;99776.34;;;19.75;100.00
46087;BME280;31824;49.648;8.640;2023-04-21T13:33:38;99777.25;;;19.57;100.00
46087;BME280;31824;49.648;8.640;2023-04-21T13:36:40;99778.22;;;19.60;100.00
46087;BME280;31824;49.648;8.640;2023-04-21T13:39:42;99762.06;;;20.30;100.00
46087;BME280;31824;49.648;8.640;2023-04-21T13:42:45;99760.75;;;20.60;100.00
46087;BME280;31824;49.648;8.640;2023-04-21T13:45:48;99766.53;;;21.10;100.00
46087;BME280;31824;49.648;8.640;2023-04-21T13:48:52;99753.38;;;20.15;100.00
46087;BME280;31824;49.648;8.640;2023-04-21T13:51:55;99753.84;;;20.84;100.00
46087;BME280;31824;49.648;8.640;2023-04-21T13:54:57;99745.66;;;20.21;100.00
46087;BME280;31824;49.648;8.640;2023-04-21T13:57:58;99736.41;;;20.13;100.00
46087;BME280;31824;49.648;8.640;2023-04-21T14:01:03;99743.91;;;20.61;100.00
46087;BME280;31824;49.648;8.640;2023-04-21T14:04:05;99737.59;;;20.78;100.00
46087;BME280;31824;49.648;8.640;2023-04-21T14:07:10;99737.03;;;21.28;100.00
46087;BME280;31824;49.648;8.640;2023-04-21T14:10:12;99723.59;;;20.84;100.00
46087;BME280;31824;49.648;8.640;2023-04-21T14:13:14;99721.78;;;21.25;100.00
46087;BME280;31824;49.648;8.640;2023-04-21T14:16:35;99716.06;;;20.75;100.00
46087;BME280;31824;49.648;8.640;2023-04-21T14:19:40;99705.28;;;21.14;100.00
46087;BME280;31824;49.648;8.640;2023-04-21T14:22:41;99697.78;;;21.70;100.00
46087;BME280;31824;49.648;8.640;2023-04-21T14:25:43;99694.06;;;22.12;100.00
46087;BME280;31824;49.648;8.640;2023-04-21T14:28:45;99688.66;;;20.19;100.00
46087;BME280;31824;49.648;8.640;2023-04-21T14:31:48;99686.03;;;21.44;100.00
46087;BME280;31824;49.648;8.640;2023-04-21T14:34:50;99691.31;;;22.11;100.00
46087;BME280;31824;49.648;8.640;2023-04-21T14:37:54;99681.66;;;22.14;100.00
46087;BME280;31824;49.648;8.640;2023-04-21T14:40:56;99677.66;;;22.27;100.00
46087;BME280;31824;49.648;8.640;2023-04-21T14:43:58;99678.84;;;21.43;100.00
46087;BME280;31824;49.648;8.640;2023-04-21T14:47:02;99667.16;;;22.07;100.00
46087;BME280;31824;49.648;8.640;2023-04-21T14:50:11;99658.56;;;22.40;100.00
46087;BME280;31824;49.648;8.640;2023-04-21T14:53:13;99651.22;;;21.64;100.00
46087;BME280;31824;49.648;8.640;2023-04-21T14:56:15;99657.03;;;22.00;100.00
46087;BME280;31824;49.648;8.640;2023-04-21T14:59:17;99652.53;;;22.23;100.00
46087;BME280;31824;49.648;8.640;2023-04-21T15:02:21;99651.06;;;22.56;100.00
46087;BME280;31824;49.648;8.640;2023-04-21T15:05:23;99640.81;;;22.42;100.00
46087;BME280;31824;49.648;8.640;2023-04-21T15:08:25;99625.97;;;22.52;100.00
46087;BME280;31824;49.648;8.640;2023-04-21T15:11:28;99625.22;;;23.94;100.00
46087;BME280;31824;49.648;8.640;2023-04-21T15:14:30;99625.75;;;22.22;100.00
46087;BME280;31824;49.648;8.640;2023-04-21T15:17:33;99628.97;;;23.42;100.00
46087;BME280;31824;49.648;8.640;2023-04-21T15:20:35;99631.31;;;22.78;100.00
46087;BME280;31824;49.648;8.640;2023-04-21T15:23:46;99631.41;;;23.34;100.00
46087;BME280;31824;49.648;8.640;2023-04-21T15:26:48;99623.50;;;23.39;100.00
46087;BME280;31824;49.648;8.640;2023-04-21T15:29:49;99615.78;;;23.79;100.00
46087;BME280;31824;49.648;8.640;2023-04-21T15:32:53;99617.63;;;23.51;100.00
46087;BME280;31824;49.648;8.640;2023-04-21T15:35:54;99615.72;;;24.06;100.00
46087;BME280;31824;49.648;8.640;2023-04-21T15:38:57;99614.06;;;24.43;100.00
46087;BME280;31824;49.648;8.640;2023-04-21T15:41:59;99609.13;;;24.26;100.00
46087;BME280;31824;49.648;8.640;2023-04-21T15:45:02;99605.34;;;25.23;100.00
46087;BME280;31824;49.648;8.640;2023-04-21T15:48:06;99613.88;;;25.04;100.00
46087;BME280;31824;49.648;8.640;2023-04-21T15:51:08;99606.25;;;24.20;100.00
46087;BME280;31824;49.648;8.640;2023-04-21T15:54:11;99602.84;;;24.59;100.00
46087;BME280;31824;49.648;8.640;2023-04-21T15:57:13;99609.84;;;25.23;100.00
46087;BME280;31824;49.648;8.640;2023-04-21T16:00:16;99602.59;;;23.86;100.00
46087;BME280;31824;49.648;8.640;2023-04-21T16:03:19;99591.66;;;21.92;100.00